Back to Top
Banner_Quays_at_Mast_2020.jpeg
previous arrow
next arrow

Port Arrivals Report (AIS)

This report is generated from collected AIS (Automated Identification System) signals from vessels entering port.

IMO MMSI Class Flag Vessel Name Vessel type Nav Status Destination Call Sign Latitude Longitude Speed (kts) Course (T) Draught (m) LOA (m) Beam (m) Timestamp
0 250006649 B IE ALCHEMIST'S GOLD SAILING. - EI ZU 6 51.6873 -8.49863 5 13.9 0 10 2 2026-05-01 17:43:18
0 232058621 B GB FELICITY Pleasure craft - MRJX8 51.688 -8.49782 7.1 343.8 0 10 3 2026-05-01 17:00:57
0 250001361 B IE ANDROMEDA SAILING. - EI5039 51.6887 -8.50064 7 345.1 0 13 4 2026-05-01 14:44:28
0 235097316 B GB LYRA MAY Pleasure craft - 2GGZ4 51.6874 -8.49944 4.8 348.4 0 13 3 2026-05-01 14:07:00
0 250103600 A IE CISEMAIR FISHING. Undefined FISHING CH16 CH71 EI7396 51.6872 -8.49752 4.7 359.1 4.7 0 0 2026-05-01 14:03:10
8808939 250000527 A IE F/V RACHEL JAY S448 FISHING. - FISHING EI8447 51.6885 -8.49839 8.5 352 0 26 8 2026-04-30 06:27:19
0 250001702 A IE ADRIANNE FISHING. Undefined CO EIGX7 51.6879 -8.49974 7.5 347.8 3.5 21 7 2026-04-29 08:04:27
9068598 250000608 A IE HANNAH J FISHING. Undefined EI8715 51.6893 -8.49926 7.8 336 0 20 6 2026-04-29 05:52:04
0 250000954 A IE JENNY M FISHING. Power Driven vessel pushing ahead or alongside EIBN6 51.6878 -8.49888 7.5 351.1 0 19 5 2026-04-29 00:23:05
0 232016609 B GB RNLI LIFEBOAT B-909 SAR. - 51.692 -8.50812 22.6 332.5 0 8 2 2026-04-28 19:43:56
0 235028498 B GB SUPERTRAMP SAILING. - MHKF8 51.6879 -8.49937 4.1 3.9 0 11 4 2026-04-28 10:59:32
0 250005517 B IE HAFOD Pleasure craft - EI-VE-3 51.6874 -8.5011 5 352.8 0 10 3 2026-04-27 16:32:55
0 250014804 B IE KIR ROYALE Pleasure craft - EIA3270 51.6879 -8.49992 7.4 320.7 0 0 0 2026-04-27 16:07:12
0 250014243 B IE PRIVATEER SAILING. - EIA2708 51.6886 -8.50077 7.9 353.8 0 12 4 2026-04-27 12:41:42
0 250004156 A IE F/V BREIZH ARVOR II FISHING. - FISHING EIRX3 51.6998 -8.51739 0 332.6 3.2 23 6 2026-04-26 19:41:00
0 250001825 B IE OCEAN RANGER Pleasure craft - EIHP5 51.6872 -8.49489 3 354 0 12 5 2026-04-26 18:22:24
0 250001825 B IE OCEAN RANGER Pleasure craft - EIHP5 51.6877 -8.49539 1.9 217.6 0 12 5 2026-04-26 18:20:25
0 227369590 B FR LOMASYPA TOO Pleasure craft - FAD2050 51.6874 -8.49802 5.7 352.4 0 0 0 2026-04-26 15:55:48
0 250005095 B IE GGENESIS SAILING. - EITK2 51.6883 -8.50045 5.9 355.8 0 11 4 2026-04-26 15:55:46
0 250006641 B IE TIGHEY BOY SAILING. - EIZR9 51.6893 -8.49948 6.2 347.4 0 11 4 2026-04-26 15:54:39